• Join FlightAware (Why Join?)
  • Login
  • US Flag 
Gobble Gobble! 
01:57AM EST


 

Airport Tracker/Info


-or-


 

Live Flight TrackerFlight Track Log ✈ N448ND ✈ 24-Jun-2013 ✈ KFPR - KSGJ

Flight Track Log - Related Links

Times and Time Zones

All times are in EDT time to prevent confusion due to time zone crossing. See the N448ND flight status page for this flight to view local times or setup timezone preferences in your user account.

Time Position Orientation Groundspeed Altitude Reporting Facility
EDT Latitude Longitude Course Direction KTS MPH feet Rate Location/Type
09:14PM 27.5236 -80.3436 330° Northwest 90 104 1,600  Level Miami Center
09:15PM 27.5486 -80.3492 349° North 85 98 2,300 600 Climbing Miami Center
09:16PM 27.5733 -80.3617 336° Northwest 90 104 2,800 480 Climbing Miami Center
09:17PM 27.5939 -80.3739 332° Northwest 90 104 3,300 480 Climbing Miami Center
09:18PM 27.6164 -80.3864 334° Northwest 96 110 3,800 480 Climbing Miami Center
09:19PM 27.5925 -80.4343 330° Northwest  Level FlightAware Approximate
09:19PM 27.6411 -80.4011 332° Northwest 96 110 4,300  Level Miami Center
09:20PM 27.6115 -80.4466 330° Northwest  Level FlightAware Approximate
09:20PM 27.6658 -80.4161 332° Northwest 96 110 4,800  Level Miami Center
09:21PM 27.6906 -80.4286 336° Northwest 96 110 5,000 60 Climbing Miami Center
09:23PM 27.7500 -80.4500 342° North 110 127 5,000  Level Orlando TRACON
09:24PM 27.7667 -80.4667 318° Northwest 110 127 5,000  Level Orlando TRACON
09:25PM 27.8000 -80.4833 336° Northwest 110 127 5,000  Level Orlando TRACON
09:26PM 27.8333 -80.5000 339° North 110 127 5,000  Level Orlando TRACON
09:27PM 27.8309 -80.4966 339° North  Level FlightAware Approximate
09:29PM 27.8898 -80.5226 341° North  Level FlightAware Approximate
09:29PM 27.9167 -80.5333 341° North 106 122 5,100  Level Orlando TRACON
09:31PM 27.9667 -80.5667 330° Northwest 110 127 5,000 -60 Descending Orlando TRACON
09:32PM 28.0000 -80.5667 360° North 108 124 5,000  Level Orlando TRACON
09:33PM 28.0167 -80.5833 319° Northwest 113 130 5,000  Level Orlando TRACON
09:34PM 28.0000 -80.5833 180° South 90 104 5,000  Level Orlando TRACON
09:35PM 27.9833 -80.5667 139° Southeast 86 99 5,000 -300 Level Orlando TRACON
09:36PM 27.9500 -80.5500 156° South 96 110 4,400 -600 Descending Orlando TRACON
09:39PM 28.0047 -80.5682 344° North  Level FlightAware Approximate
09:46PM 28.1481 -80.6501 343° North  Level FlightAware Approximate
09:47PM 28.1751 -80.6596 343° North  Level FlightAware Approximate
09:48PM 28.2022 -80.6690 343° North  Level FlightAware Approximate
09:49PM 28.2292 -80.6785 343° North  Level FlightAware Approximate
09:50PM 28.2561 -80.6879 343° North  Level FlightAware Approximate
09:51PM 28.2831 -80.6973 343° North  Level FlightAware Approximate
09:52PM 28.3102 -80.7068 343° North  Level FlightAware Approximate
09:53PM 28.3372 -80.7163 343° North  Level FlightAware Approximate
09:54PM 28.3641 -80.7257 343° North  Level FlightAware Approximate
09:55PM 28.3911 -80.7352 343° North  Level FlightAware Approximate
09:56PM 28.4181 -80.7447 343° North  Level FlightAware Approximate
09:57PM 28.4450 -80.7547 341° North  Level FlightAware Approximate
09:58PM 28.4717 -80.7653 341° North  Level FlightAware Approximate
09:59PM 28.4983 -80.7760 341° North  Level FlightAware Approximate
10:00PM 28.5247 -80.7874 336° Northwest  Level FlightAware Approximate
10:01PM 28.5506 -80.8003 336° Northwest  Level FlightAware Approximate
10:02PM 28.5765 -80.8132 336° Northwest  Level FlightAware Approximate
10:03PM 28.6024 -80.8261 336° Northwest  Level FlightAware Approximate
10:04PM 28.6282 -80.8391 336° Northwest  Level FlightAware Approximate
10:05PM 28.6541 -80.8520 336° Northwest  Level FlightAware Approximate
10:06PM 28.6800 -80.8650 336° Northwest  Level FlightAware Approximate
10:07PM 28.7069 -80.8745 344° North  Level FlightAware Approximate
10:08PM 28.7341 -80.8835 346° North  Level FlightAware Approximate
10:09PM 28.7615 -80.8914 346° North  Level FlightAware Approximate
10:10PM 28.7889 -80.8992 346° North  Level FlightAware Approximate
10:11PM 28.8163 -80.9070 346° North  Level FlightAware Approximate
10:12PM 28.8437 -80.9149 346° North  Level FlightAware Approximate
10:13PM 28.8703 -80.9257 339° North  Level FlightAware Approximate
10:14PM 28.8966 -80.9374 339° North  Level FlightAware Approximate
10:15PM 28.9230 -80.9491 339° North  Level FlightAware Approximate
10:16PM 28.9493 -80.9608 339° North  Level FlightAware Approximate
10:17PM 28.9756 -80.9725 339° North  Level FlightAware Approximate
10:18PM 29.0021 -80.9833 North  Level FlightAware Approximate
10:19PM 29.0296 -80.9886 340° North  Level FlightAware Approximate
10:20PM 29.0562 -80.9995 340° North  Level FlightAware Approximate
10:21PM 29.0827 -81.0105 340° North  Level FlightAware Approximate
10:22PM 29.1093 -81.0214 340° North  Level FlightAware Approximate
10:23PM 29.1359 -81.0324 340° North  Level FlightAware Approximate
10:24PM 29.1625 -81.0433 340° North  Level FlightAware Approximate
10:25PM 29.1891 -81.0543 340° North  Level FlightAware Approximate
10:26PM 29.2157 -81.0652 340° North  Level FlightAware Approximate
10:27PM 29.2423 -81.0762 340° North  Level FlightAware Approximate
10:28PM 29.2689 -81.0872 340° North  Level FlightAware Approximate
10:29PM 29.2955 -81.0981 340° North  Level FlightAware Approximate
10:30PM 29.3223 -81.1083 342° North  Level FlightAware Approximate
10:31PM 29.3491 -81.1184 342° North  Level FlightAware Approximate
10:32PM 29.3760 -81.1284 342° North  Level FlightAware Approximate
10:33PM 29.4028 -81.1385 342° North  Level FlightAware Approximate
10:34PM 29.4297 -81.1486 342° North  Level FlightAware Approximate
10:35PM 29.4566 -81.1586 342° North  Level FlightAware Approximate
10:36PM 29.4834 -81.1687 342° North  Level FlightAware Approximate
10:37PM 29.5103 -81.1788 342° North  Level FlightAware Approximate
10:38PM 29.5371 -81.1889 342° North  Level FlightAware Approximate
10:39PM 29.5640 -81.1990 342° North  Level FlightAware Approximate
10:40PM 29.5909 -81.2091 342° North  Level FlightAware Approximate
10:41PM 29.6178 -81.2191 342° North  Level FlightAware Approximate
10:42PM 29.6446 -81.2292 342° North  Level FlightAware Approximate
10:43PM 29.6715 -81.2393 342° North  Level FlightAware Approximate
10:44PM 29.6983 -81.2494 342° North  Level FlightAware Approximate
10:45PM 29.7235 -81.2641 332° Northwest  Level FlightAware Approximate
10:46PM 29.7486 -81.2791 332° Northwest  Level FlightAware Approximate
10:47PM 29.7736 -81.2942 332° Northwest  Level FlightAware Approximate
10:48PM 29.8006 -81.3000 North  Level FlightAware Approximate
10:49PM 29.8289 -81.3000 North  Level FlightAware Approximate
10:50PM 29.8552 -81.3109 337° Northwest  Level FlightAware Approximate
10:51PM 29.8822 -81.3198 350° North  Level FlightAware Approximate
10:52PM 29.9100 -81.3253 350° North  Level FlightAware Approximate
10:53PM 29.9379 -81.3309 350° North  Level FlightAware Approximate
10:54PM 29.9500 -81.3333 350° North  Level FlightAware Approximate
10:55PM 29.9592 -81.3397 350° North  Level Estimated
10:56PM 29.9592 -81.3397 350° North  Level Estimated
10:57PM 29.9592 -81.3397 350° North  Level Estimated
10:58PM 29.9592 -81.3397 350° North  Level Estimated
10:59PM 29.9592 -81.3397 350° North  Level Estimated
11:00PM 29.9592 -81.3397 350° North  Level Estimated
11:01PM 29.9592 -81.3397 350° North  Level Estimated
11:02PM 29.9592 -81.3397 350° North  Level Estimated
11:03PM 29.9592 -81.3397 350° North  Level Estimated